sensor_id;sensor_type;location;lat;lon;timestamp;pressure;altitude;pressure_sealevel;temperature;humidity
51083;BME280;37131;42.694;23.350;2022-08-04T00:01:21;95599.91;;;17.76;100.00
51083;BME280;37131;42.694;23.350;2022-08-04T00:03:56;95619.72;;;17.84;100.00
51083;BME280;37131;42.694;23.350;2022-08-04T00:09:15;95615.47;;;17.78;100.00
51083;BME280;37131;42.694;23.350;2022-08-04T00:11:47;95618.69;;;17.90;100.00
51083;BME280;37131;42.694;23.350;2022-08-04T00:14:15;95616.53;;;17.82;100.00
51083;BME280;37131;42.694;23.350;2022-08-04T00:16:42;95617.06;;;17.89;100.00
51083;BME280;37131;42.694;23.350;2022-08-04T00:19:17;95612.88;;;17.88;100.00
51083;BME280;37131;42.694;23.350;2022-08-04T00:21:55;95616.53;;;17.82;100.00
51083;BME280;37131;42.694;23.350;2022-08-04T00:24:24;95525.22;;;17.45;100.00
51083;BME280;37131;42.694;23.350;2022-08-04T00:26:52;95606.59;;;18.04;100.00
51083;BME280;37131;42.694;23.350;2022-08-04T00:29:18;95608.69;;;18.13;100.00
51083;BME280;37131;42.694;23.350;2022-08-04T00:31:44;95610.22;;;17.88;100.00
51083;BME280;37131;42.694;23.350;2022-08-04T00:34:11;95605.44;;;17.69;100.00
51083;BME280;37131;42.694;23.350;2022-08-04T00:36:39;95613.34;;;17.64;100.00
51083;BME280;37131;42.694;23.350;2022-08-04T00:39:06;95621.25;;;17.64;100.00
51083;BME280;37131;42.694;23.350;2022-08-04T00:41:52;95626.53;;;17.64;100.00
51083;BME280;37131;42.694;23.350;2022-08-04T00:50:04;95618.09;;;17.67;100.00
51083;BME280;37131;42.694;23.350;2022-08-04T00:52:55;95624.91;;;17.53;100.00
51083;BME280;37131;42.694;23.350;2022-08-04T01:01:00;95629.94;;;17.70;100.00
51083;BME280;37131;42.694;23.350;2022-08-04T01:11:46;95638.00;;;17.38;100.00
51083;BME280;37131;42.694;23.350;2022-08-04T01:28:05;95636.91;;;17.28;100.00
51083;BME280;37131;42.694;23.350;2022-08-04T01:30:42;95636.13;;;17.28;100.00
51083;BME280;37131;42.694;23.350;2022-08-04T01:33:12;95631.13;;;17.31;100.00
51083;BME280;37131;42.694;23.350;2022-08-04T01:35:50;95631.38;;;17.30;100.00
51083;BME280;37131;42.694;23.350;2022-08-04T01:38:24;95626.72;;;17.47;100.00
51083;BME280;37131;42.694;23.350;2022-08-04T01:40:55;95626.69;;;17.37;100.00
51083;BME280;37131;42.694;23.350;2022-08-04T01:43:22;95626.69;;;17.37;100.00
51083;BME280;37131;42.694;23.350;2022-08-04T01:45:50;95638.09;;;17.00;100.00
51083;BME280;37131;42.694;23.350;2022-08-04T01:48:17;95638.66;;;16.70;100.00
51083;BME280;37131;42.694;23.350;2022-08-04T01:50:49;95632.66;;;16.79;100.00
51083;BME280;37131;42.694;23.350;2022-08-04T01:53:18;95649.41;;;16.95;100.00
51083;BME280;37131;42.694;23.350;2022-08-04T01:55:46;95646.25;;;16.98;100.00
51083;BME280;37131;42.694;23.350;2022-08-04T01:58:15;95640.97;;;16.93;100.00
51083;BME280;37131;42.694;23.350;2022-08-04T02:00:58;95635.19;;;16.96;100.00
51083;BME280;37131;42.694;23.350;2022-08-04T02:03:27;95631.47;;;16.92;100.00
51083;BME280;37131;42.694;23.350;2022-08-04T02:06:31;95639.22;;;16.77;100.00
51083;BME280;37131;42.694;23.350;2022-08-04T02:08:53;95633.25;;;16.87;100.00
51083;BME280;37131;42.694;23.350;2022-08-04T02:11:22;95622.59;;;16.66;100.00
51083;BME280;37131;42.694;23.350;2022-08-04T02:17:02;95628.41;;;16.73;100.00
51083;BME280;37131;42.694;23.350;2022-08-04T02:22:17;95625.28;;;16.81;100.00
51083;BME280;37131;42.694;23.350;2022-08-04T02:24:49;95627.78;;;16.56;100.00
51083;BME280;37131;42.694;23.350;2022-08-04T02:27:18;95630.53;;;16.71;100.00
51083;BME280;37131;42.694;23.350;2022-08-04T02:29:51;95635.66;;;16.88;100.00
51083;BME280;37131;42.694;23.350;2022-08-04T02:32:26;95633.91;;;16.66;100.00
51083;BME280;37131;42.694;23.350;2022-08-04T02:34:53;95633.81;;;16.56;100.00
51083;BME280;37131;42.694;23.350;2022-08-04T02:37:23;95634.66;;;16.62;100.00
51083;BME280;37131;42.694;23.350;2022-08-04T02:39:52;95630.66;;;16.54;100.00
51083;BME280;37131;42.694;23.350;2022-08-04T02:42:18;95631.44;;;16.55;100.00
51083;BME280;37131;42.694;23.350;2022-08-04T02:44:50;95637.63;;;16.38;100.00
51083;BME280;37131;42.694;23.350;2022-08-04T02:47:19;95646.66;;;16.47;100.00
51083;BME280;37131;42.694;23.350;2022-08-04T02:49:45;95628.03;;;16.59;100.00
51083;BME280;37131;42.694;23.350;2022-08-04T02:52:12;95596.34;;;16.39;100.00
51083;BME280;37131;42.694;23.350;2022-08-04T02:54:40;95637.78;;;16.59;100.00
51083;BME280;37131;42.694;23.350;2022-08-04T02:57:13;95644.09;;;16.58;100.00
51083;BME280;37131;42.694;23.350;2022-08-04T03:02:33;95636.75;;;16.27;100.00
51083;BME280;37131;42.694;23.350;2022-08-04T03:05:09;95640.59;;;16.47;100.00
51083;BME280;37131;42.694;23.350;2022-08-04T03:10:35;95640.25;;;16.71;100.00
51083;BME280;37131;42.694;23.350;2022-08-04T03:13:24;95654.25;;;16.39;100.00
51083;BME280;37131;42.694;23.350;2022-08-04T03:32:56;95642.78;;;16.23;100.00
51083;BME280;37131;42.694;23.350;2022-08-04T04:23:13;95660.38;;;16.22;100.00
51083;BME280;37131;42.694;23.350;2022-08-04T04:36:43;95664.78;;;16.44;100.00
51083;BME280;37131;42.694;23.350;2022-08-04T04:42:24;95616.47;;;15.95;100.00
51083;BME280;37131;42.694;23.350;2022-08-04T04:45:04;95671.25;;;16.63;96.25
51083;BME280;37131;42.694;23.350;2022-08-04T04:50:48;95666.88;;;16.74;98.05
51083;BME280;37131;42.694;23.350;2022-08-04T04:53:50;95671.50;;;16.94;97.60
51083;BME280;37131;42.694;23.350;2022-08-04T04:56:33;95669.25;;;17.13;97.58
51083;BME280;37131;42.694;23.350;2022-08-04T04:59:02;95664.81;;;17.24;90.95
51083;BME280;37131;42.694;23.350;2022-08-04T05:07:08;95670.47;;;16.95;94.55
51083;BME280;37131;42.694;23.350;2022-08-04T05:15:12;95676.16;;;16.82;94.55
51083;BME280;37131;42.694;23.350;2022-08-04T05:17:41;95673.09;;;16.95;95.07
51083;BME280;37131;42.694;23.350;2022-08-04T05:20:20;95683.22;;;17.14;93.10
51083;BME280;37131;42.694;23.350;2022-08-04T05:22:54;95683.19;;;17.09;94.64
51083;BME280;37131;42.694;23.350;2022-08-04T05:25:43;95677.50;;;17.27;94.88
51083;BME280;37131;42.694;23.350;2022-08-04T05:28:16;95678.06;;;17.34;95.27
51083;BME280;37131;42.694;23.350;2022-08-04T05:30:47;95682.03;;;17.37;96.81
51083;BME280;37131;42.694;23.350;2022-08-04T05:33:20;95680.88;;;17.76;95.38
51083;BME280;37131;42.694;23.350;2022-08-04T05:35:49;95681.91;;;17.69;94.63
51083;BME280;37131;42.694;23.350;2022-08-04T05:38:21;95669.00;;;17.78;90.30
51083;BME280;37131;42.694;23.350;2022-08-04T05:40:48;95667.84;;;18.22;90.71
51083;BME280;37131;42.694;23.350;2022-08-04T05:43:15;95639.59;;;18.17;89.90
51083;BME280;37131;42.694;23.350;2022-08-04T05:45:41;95677.09;;;18.55;87.76
51083;BME280;37131;42.694;23.350;2022-08-04T05:48:09;95671.81;;;18.71;88.62
51083;BME280;37131;42.694;23.350;2022-08-04T05:50:36;95683.19;;;18.92;88.59
51083;BME280;37131;42.694;23.350;2022-08-04T05:53:02;95670.72;;;19.03;88.82
51083;BME280;37131;42.694;23.350;2022-08-04T05:55:30;95676.03;;;18.98;89.88
51083;BME280;37131;42.694;23.350;2022-08-04T05:57:57;95673.63;;;19.11;89.59
51083;BME280;37131;42.694;23.350;2022-08-04T06:00:24;95674.69;;;19.21;89.85
51083;BME280;37131;42.694;23.350;2022-08-04T06:02:51;95687.38;;;19.24;90.15
51083;BME280;37131;42.694;23.350;2022-08-04T06:05:18;95682.28;;;19.43;85.89
51083;BME280;37131;42.694;23.350;2022-08-04T06:07:44;95689.16;;;19.49;86.28
51083;BME280;37131;42.694;23.350;2022-08-04T06:10:10;95674.94;;;19.30;84.03
51083;BME280;37131;42.694;23.350;2022-08-04T06:12:48;95682.00;;;19.50;83.77
51083;BME280;37131;42.694;23.350;2022-08-04T06:15:18;95685.94;;;19.57;83.70
51083;BME280;37131;42.694;23.350;2022-08-04T06:17:50;95690.91;;;19.74;82.79
51083;BME280;37131;42.694;23.350;2022-08-04T06:20:18;95679.44;;;20.00;81.91
51083;BME280;37131;42.694;23.350;2022-08-04T06:22:48;95690.53;;;20.02;78.26
51083;BME280;37131;42.694;23.350;2022-08-04T06:25:17;95686.81;;;20.08;78.68
51083;BME280;37131;42.694;23.350;2022-08-04T06:27:45;95686.91;;;19.87;79.20
51083;BME280;37131;42.694;23.350;2022-08-04T06:30:12;95684.69;;;20.05;79.99
51083;BME280;37131;42.694;23.350;2022-08-04T06:32:41;95688.69;;;19.97;78.88
51083;BME280;37131;42.694;23.350;2022-08-04T06:35:22;95683.75;;;20.30;78.98
51083;BME280;37131;42.694;23.350;2022-08-04T06:37:48;95688.56;;;19.62;81.29
51083;BME280;37131;42.694;23.350;2022-08-04T06:40:16;95694.00;;;19.97;80.03
51083;BME280;37131;42.694;23.350;2022-08-04T06:42:43;95695.38;;;19.84;78.65
51083;BME280;37131;42.694;23.350;2022-08-04T06:45:09;95696.63;;;19.97;77.81
51083;BME280;37131;42.694;23.350;2022-08-04T06:47:39;95690.38;;;20.27;79.23
51083;BME280;37131;42.694;23.350;2022-08-04T06:50:06;95693.25;;;19.86;78.83
51083;BME280;37131;42.694;23.350;2022-08-04T06:52:32;95694.31;;;19.90;78.48
51083;BME280;37131;42.694;23.350;2022-08-04T06:54:57;95646.03;;;19.49;79.07
51083;BME280;37131;42.694;23.350;2022-08-04T06:57:27;95682.81;;;20.10;80.15
51083;BME280;37131;42.694;23.350;2022-08-04T07:00:00;95685.91;;;20.23;79.71
51083;BME280;37131;42.694;23.350;2022-08-04T07:02:29;95685.09;;;20.27;79.98
51083;BME280;37131;42.694;23.350;2022-08-04T07:04:55;95680.66;;;20.18;79.42
51083;BME280;37131;42.694;23.350;2022-08-04T07:07:23;95689.63;;;20.22;81.61
51083;BME280;37131;42.694;23.350;2022-08-04T07:09:49;95695.13;;;19.86;77.32
51083;BME280;37131;42.694;23.350;2022-08-04T07:12:16;95681.97;;;20.15;79.74
51083;BME280;37131;42.694;23.350;2022-08-04T07:14:44;95693.41;;;20.50;76.99
51083;BME280;37131;42.694;23.350;2022-08-04T07:17:10;95689.44;;;20.87;77.31
51083;BME280;37131;42.694;23.350;2022-08-04T07:19:38;95685.19;;;20.51;75.88
51083;BME280;37131;42.694;23.350;2022-08-04T07:22:06;95665.91;;;20.80;73.97
51083;BME280;37131;42.694;23.350;2022-08-04T07:24:33;95679.59;;;21.17;74.26
51083;BME280;37131;42.694;23.350;2022-08-04T07:27:00;95667.06;;;21.52;73.57
51083;BME280;37131;42.694;23.350;2022-08-04T07:29:26;95673.94;;;21.77;71.79
51083;BME280;37131;42.694;23.350;2022-08-04T07:31:53;95666.34;;;21.89;69.03
51083;BME280;37131;42.694;23.350;2022-08-04T07:34:19;95672.59;;;22.18;68.18
51083;BME280;37131;42.694;23.350;2022-08-04T07:36:46;95668.31;;;22.22;66.81
51083;BME280;37131;42.694;23.350;2022-08-04T07:39:12;95667.16;;;22.47;63.92
51083;BME280;37131;42.694;23.350;2022-08-04T07:41:38;95593.88;;;22.08;64.86
51083;BME280;37131;42.694;23.350;2022-08-04T07:44:06;95667.88;;;22.86;64.03
51083;BME280;37131;42.694;23.350;2022-08-04T07:46:32;95658.44;;;23.07;64.54
51083;BME280;37131;42.694;23.350;2022-08-04T07:49:01;95660.97;;;23.32;61.64
51083;BME280;37131;42.694;23.350;2022-08-04T07:51:29;95658.00;;;23.61;62.74
51083;BME280;37131;42.694;23.350;2022-08-04T07:53:55;95659.25;;;23.77;61.38
51083;BME280;37131;42.694;23.350;2022-08-04T07:56:21;95653.56;;;23.56;67.62
51083;BME280;37131;42.694;23.350;2022-08-04T07:58:47;95657.00;;;23.57;60.47
51083;BME280;37131;42.694;23.350;2022-08-04T08:01:12;95656.03;;;23.25;60.81
51083;BME280;37131;42.694;23.350;2022-08-04T08:03:39;95651.97;;;23.69;60.92
51083;BME280;37131;42.694;23.350;2022-08-04T08:06:05;95632.94;;;23.76;60.09
51083;BME280;37131;42.694;23.350;2022-08-04T08:08:30;95658.66;;;23.94;58.83
51083;BME280;37131;42.694;23.350;2022-08-04T08:10:56;95650.03;;;24.11;58.47
51083;BME280;37131;42.694;23.350;2022-08-04T08:13:22;95651.50;;;24.40;56.31
51083;BME280;37131;42.694;23.350;2022-08-04T08:15:48;95646.91;;;24.55;57.64
51083;BME280;37131;42.694;23.350;2022-08-04T08:18:14;95644.34;;;24.63;57.22
51083;BME280;37131;42.694;23.350;2022-08-04T08:20:43;95655.53;;;24.15;59.60
51083;BME280;37131;42.694;23.350;2022-08-04T08:23:08;95649.41;;;24.51;58.18
51083;BME280;37131;42.694;23.350;2022-08-04T08:25:34;95651.47;;;24.77;57.59
51083;BME280;37131;42.694;23.350;2022-08-04T08:28:01;95654.53;;;24.93;55.02
51083;BME280;37131;42.694;23.350;2022-08-04T08:30:27;95654.09;;;24.99;52.86
51083;BME280;37131;42.694;23.350;2022-08-04T08:32:53;95659.97;;;24.79;55.04
51083;BME280;37131;42.694;23.350;2022-08-04T08:35:19;95655.41;;;24.57;56.21
51083;BME280;37131;42.694;23.350;2022-08-04T08:37:51;95647.47;;;24.06;58.38
51083;BME280;37131;42.694;23.350;2022-08-04T08:46:43;95648.53;;;25.18;55.22
51083;BME280;37131;42.694;23.350;2022-08-04T09:12:55;95630.09;;;26.32;46.34
51083;BME280;37131;42.694;23.350;2022-08-04T09:17:58;95614.19;;;26.53;47.46
51083;BME280;37131;42.694;23.350;2022-08-04T09:20:38;95626.50;;;26.37;47.00
51083;BME280;37131;42.694;23.350;2022-08-04T09:26:33;95613.31;;;26.96;46.20
51083;BME280;37131;42.694;23.350;2022-08-04T09:29:19;95610.34;;;27.37;46.24
51083;BME280;37131;42.694;23.350;2022-08-04T09:34:33;95603.91;;;27.59;44.98
51083;BME280;37131;42.694;23.350;2022-08-04T09:37:23;95611.94;;;27.29;45.50
51083;BME280;37131;42.694;23.350;2022-08-04T09:40:05;95617.13;;;27.34;43.01
51083;BME280;37131;42.694;23.350;2022-08-04T09:45:37;95615.69;;;26.98;46.10
51083;BME280;37131;42.694;23.350;2022-08-04T09:48:16;95612.84;;;27.42;45.71
51083;BME280;37131;42.694;23.350;2022-08-04T09:50:43;95616.94;;;27.39;44.66
51083;BME280;37131;42.694;23.350;2022-08-04T09:56:34;95611.19;;;26.81;43.83
51083;BME280;37131;42.694;23.350;2022-08-04T09:59:41;95611.97;;;26.82;46.17
51083;BME280;37131;42.694;23.350;2022-08-04T10:02:03;95608.78;;;26.88;42.57
51083;BME280;37131;42.694;23.350;2022-08-04T10:04:32;95602.31;;;26.89;44.77
51083;BME280;37131;42.694;23.350;2022-08-04T10:07:23;95606.31;;;26.74;42.35
51083;BME280;37131;42.694;23.350;2022-08-04T10:15:30;95598.13;;;27.18;42.83
51083;BME280;37131;42.694;23.350;2022-08-04T10:18:26;95599.97;;;27.35;43.97
51083;BME280;37131;42.694;23.350;2022-08-04T10:23:41;95588.00;;;27.24;44.06
51083;BME280;37131;42.694;23.350;2022-08-04T10:26:26;95583.41;;;27.42;43.75
51083;BME280;37131;42.694;23.350;2022-08-04T10:29:04;95586.69;;;27.69;44.16
51083;BME280;37131;42.694;23.350;2022-08-04T10:31:35;95577.19;;;28.01;42.65
51083;BME280;37131;42.694;23.350;2022-08-04T10:34:13;95569.56;;;28.24;43.21
51083;BME280;37131;42.694;23.350;2022-08-04T10:36:55;95574.38;;;28.31;41.02
51083;BME280;37131;42.694;23.350;2022-08-04T10:40:03;95578.78;;;27.51;39.45
51083;BME280;37131;42.694;23.350;2022-08-04T10:43:32;95570.94;;;28.30;39.60
51083;BME280;37131;42.694;23.350;2022-08-04T10:45:56;95563.41;;;28.57;40.78
51083;BME280;37131;42.694;23.350;2022-08-04T10:48:29;95560.66;;;28.91;39.09
51083;BME280;37131;42.694;23.350;2022-08-04T10:54:05;95565.94;;;28.75;35.55
51083;BME280;37131;42.694;23.350;2022-08-04T10:56:33;95557.66;;;29.17;35.66
51083;BME280;37131;42.694;23.350;2022-08-04T10:59:07;95545.91;;;29.46;35.98
51083;BME280;37131;42.694;23.350;2022-08-04T11:01:37;95545.34;;;29.53;34.83
51083;BME280;37131;42.694;23.350;2022-08-04T11:04:22;95548.22;;;29.60;34.71
51083;BME280;37131;42.694;23.350;2022-08-04T11:06:51;95555.75;;;29.54;34.79
51083;BME280;37131;42.694;23.350;2022-08-04T11:09:17;95552.88;;;29.22;33.00
51083;BME280;37131;42.694;23.350;2022-08-04T11:12:24;95551.31;;;28.51;34.83
51083;BME280;37131;42.694;23.350;2022-08-04T11:14:54;95551.69;;;28.28;34.59
51083;BME280;37131;42.694;23.350;2022-08-04T11:17:35;95550.94;;;28.40;34.26
51083;BME280;37131;42.694;23.350;2022-08-04T11:20:15;95533.00;;;28.53;36.23
51083;BME280;37131;42.694;23.350;2022-08-04T11:23:11;95542.00;;;28.94;35.46
51083;BME280;37131;42.694;23.350;2022-08-04T11:25:43;95541.69;;;29.20;35.89
51083;BME280;37131;42.694;23.350;2022-08-04T11:28:36;95534.50;;;29.49;34.88
51083;BME280;37131;42.694;23.350;2022-08-04T11:31:11;95533.31;;;29.87;36.91
51083;BME280;37131;42.694;23.350;2022-08-04T11:36:31;95529.34;;;29.56;34.90
51083;BME280;37131;42.694;23.350;2022-08-04T11:41:44;95526.81;;;29.76;36.81
51083;BME280;37131;42.694;23.350;2022-08-04T11:44:18;95536.00;;;29.75;34.04
51083;BME280;37131;42.694;23.350;2022-08-04T11:46:50;95534.84;;;29.11;36.13
51083;BME280;37131;42.694;23.350;2022-08-04T11:49:37;95540.78;;;28.79;37.16
51083;BME280;37131;42.694;23.350;2022-08-04T11:52:07;95534.63;;;29.40;36.08
51083;BME280;37131;42.694;23.350;2022-08-04T11:54:34;95524.56;;;29.50;36.62
51083;BME280;37131;42.694;23.350;2022-08-04T11:57:03;95533.13;;;29.68;35.11
51083;BME280;37131;42.694;23.350;2022-08-04T11:59:29;95523.63;;;29.58;36.48
51083;BME280;37131;42.694;23.350;2022-08-04T12:04:56;95525.31;;;29.50;34.08
51083;BME280;37131;42.694;23.350;2022-08-04T12:10:50;95516.63;;;29.41;33.79
51083;BME280;37131;42.694;23.350;2022-08-04T12:13:30;95525.56;;;29.08;35.18
51083;BME280;37131;42.694;23.350;2022-08-04T12:16:21;95525.22;;;29.10;33.21
51083;BME280;37131;42.694;23.350;2022-08-04T12:19:01;95528.25;;;29.08;32.91
51083;BME280;37131;42.694;23.350;2022-08-04T12:21:38;95528.81;;;29.01;33.55
51083;BME280;37131;42.694;23.350;2022-08-04T12:24:17;95535.03;;;28.68;32.77
51083;BME280;37131;42.694;23.350;2022-08-04T12:26:55;95531.38;;;28.98;34.15
51083;BME280;37131;42.694;23.350;2022-08-04T12:29:21;95525.69;;;29.12;34.13
51083;BME280;37131;42.694;23.350;2022-08-04T12:31:54;95522.75;;;29.17;34.76
51083;BME280;37131;42.694;23.350;2022-08-04T12:34:43;95523.34;;;29.10;35.04
51083;BME280;37131;42.694;23.350;2022-08-04T12:39:51;95520.19;;;28.71;34.91
51083;BME280;37131;42.694;23.350;2022-08-04T12:42:23;95489.69;;;28.63;35.36
51083;BME280;37131;42.694;23.350;2022-08-04T12:44:51;95501.75;;;28.82;34.18
51083;BME280;37131;42.694;23.350;2022-08-04T12:47:27;95505.88;;;28.92;35.23
51083;BME280;37131;42.694;23.350;2022-08-04T12:49:57;95501.84;;;28.98;34.81
51083;BME280;37131;42.694;23.350;2022-08-04T12:52:24;95503.31;;;28.83;36.36
51083;BME280;37131;42.694;23.350;2022-08-04T12:54:53;95499.63;;;28.87;35.60
51083;BME280;37131;42.694;23.350;2022-08-04T12:57:20;95494.16;;;28.84;35.25
51083;BME280;37131;42.694;23.350;2022-08-04T12:59:48;95502.31;;;28.87;33.35
51083;BME280;37131;42.694;23.350;2022-08-04T13:02:26;95499.63;;;28.87;33.92
51083;BME280;37131;42.694;23.350;2022-08-04T13:04:54;95494.38;;;28.79;31.65
51083;BME280;37131;42.694;23.350;2022-08-04T13:07:25;95497.63;;;28.72;32.84
51083;BME280;37131;42.694;23.350;2022-08-04T13:09:52;95496.28;;;29.03;35.16
51083;BME280;37131;42.694;23.350;2022-08-04T13:12:22;95485.28;;;29.20;34.55
51083;BME280;37131;42.694;23.350;2022-08-04T13:14:51;95480.91;;;29.40;33.20
51083;BME280;37131;42.694;23.350;2022-08-04T13:17:23;95482.22;;;29.47;33.66
51083;BME280;37131;42.694;23.350;2022-08-04T13:19:50;95491.75;;;29.85;31.07
51083;BME280;37131;42.694;23.350;2022-08-04T13:22:27;95479.53;;;30.32;31.51
51083;BME280;37131;42.694;23.350;2022-08-04T13:24:55;95492.25;;;30.63;30.90
51083;BME280;37131;42.694;23.350;2022-08-04T13:27:23;95480.25;;;30.60;31.54
51083;BME280;37131;42.694;23.350;2022-08-04T13:29:50;95478.03;;;30.63;31.99
51083;BME280;37131;42.694;23.350;2022-08-04T13:32:21;95481.75;;;30.58;31.31
51083;BME280;37131;42.694;23.350;2022-08-04T13:34:50;95478.38;;;30.61;31.34
51083;BME280;37131;42.694;23.350;2022-08-04T13:37:18;95466.38;;;30.58;33.66
51083;BME280;37131;42.694;23.350;2022-08-04T13:39:45;95462.75;;;30.67;31.46
51083;BME280;37131;42.694;23.350;2022-08-04T13:42:13;95460.38;;;30.81;29.98
51083;BME280;37131;42.694;23.350;2022-08-04T13:44:43;95457.41;;;31.18;28.85
51083;BME280;37131;42.694;23.350;2022-08-04T13:47:23;95459.41;;;31.05;28.55
51083;BME280;37131;42.694;23.350;2022-08-04T13:50:28;95467.06;;;30.39;31.09
51083;BME280;37131;42.694;23.350;2022-08-04T13:52:57;95455.63;;;29.70;31.26
51083;BME280;37131;42.694;23.350;2022-08-04T13:58:42;95455.53;;;29.66;31.31
51083;BME280;37131;42.694;23.350;2022-08-04T14:00:43;95453.53;;;29.63;33.83
51083;BME280;37131;42.694;23.350;2022-08-04T14:03:13;95445.44;;;29.35;31.97
51083;BME280;37131;42.694;23.350;2022-08-04T14:05:40;95441.50;;;29.73;34.26
51083;BME280;37131;42.694;23.350;2022-08-04T14:08:11;95448.25;;;29.67;34.32
51083;BME280;37131;42.694;23.350;2022-08-04T14:10:39;95446.97;;;29.89;32.27
51083;BME280;37131;42.694;23.350;2022-08-04T14:13:05;95443.50;;;29.76;32.80
51083;BME280;37131;42.694;23.350;2022-08-04T14:15:34;95440.47;;;29.90;32.21
51083;BME280;37131;42.694;23.350;2022-08-04T14:20:57;95439.97;;;30.00;32.06
51083;BME280;37131;42.694;23.350;2022-08-04T14:23:23;95433.63;;;30.08;31.98
51083;BME280;37131;42.694;23.350;2022-08-04T14:25:50;95433.09;;;29.74;31.58
51083;BME280;37131;42.694;23.350;2022-08-04T14:28:29;95436.41;;;29.15;31.49
51083;BME280;37131;42.694;23.350;2022-08-04T14:31:29;95437.84;;;29.37;32.47
51083;BME280;37131;42.694;23.350;2022-08-04T14:33:53;95432.72;;;29.60;33.12
51083;BME280;37131;42.694;23.350;2022-08-04T14:36:20;95436.41;;;29.68;33.70
51083;BME280;37131;42.694;23.350;2022-08-04T14:38:56;95434.41;;;29.65;32.35
51083;BME280;37131;42.694;23.350;2022-08-04T14:41:28;95441.63;;;29.77;32.86
51083;BME280;37131;42.694;23.350;2022-08-04T14:43:55;95441.09;;;29.71;34.74
51083;BME280;37131;42.694;23.350;2022-08-04T14:46:23;95437.59;;;29.70;33.02
51083;BME280;37131;42.694;23.350;2022-08-04T14:49:00;95437.72;;;29.46;31.41
51083;BME280;37131;42.694;23.350;2022-08-04T14:51:26;95426.75;;;29.38;31.78
51083;BME280;37131;42.694;23.350;2022-08-04T14:53:51;95437.09;;;29.52;32.83
51083;BME280;37131;42.694;23.350;2022-08-04T14:56:17;95428.13;;;29.61;32.10
51083;BME280;37131;42.694;23.350;2022-08-04T14:58:43;95429.06;;;29.52;34.14
51083;BME280;37131;42.694;23.350;2022-08-04T15:01:10;95434.94;;;29.30;31.41
51083;BME280;37131;42.694;23.350;2022-08-04T15:03:40;95425.41;;;29.45;32.70
51083;BME280;37131;42.694;23.350;2022-08-04T15:06:06;95428.84;;;29.45;31.14
51083;BME280;37131;42.694;23.350;2022-08-04T15:08:32;95432.75;;;29.48;31.56
51083;BME280;37131;42.694;23.350;2022-08-04T15:10:59;95435.03;;;29.46;31.78
51083;BME280;37131;42.694;23.350;2022-08-04T15:13:26;95419.75;;;29.21;30.79
51083;BME280;37131;42.694;23.350;2022-08-04T15:15:52;95419.63;;;29.18;32.39
51083;BME280;37131;42.694;23.350;2022-08-04T15:18:18;95416.94;;;29.18;33.09
51083;BME280;37131;42.694;23.350;2022-08-04T15:20:45;95427.25;;;29.16;32.29
51083;BME280;37131;42.694;23.350;2022-08-04T15:23:10;95424.22;;;29.17;32.83
51083;BME280;37131;42.694;23.350;2022-08-04T15:25:42;95423.09;;;29.18;32.31
51083;BME280;37131;42.694;23.350;2022-08-04T15:28:14;95422.09;;;29.11;32.10
51083;BME280;37131;42.694;23.350;2022-08-04T15:30:40;95419.91;;;28.88;32.24
51083;BME280;37131;42.694;23.350;2022-08-04T15:33:07;95417.97;;;29.01;33.06
51083;BME280;37131;42.694;23.350;2022-08-04T15:35:33;95416.44;;;28.87;33.23
51083;BME280;37131;42.694;23.350;2022-08-04T15:38:08;95413.75;;;28.87;33.49
51083;BME280;37131;42.694;23.350;2022-08-04T15:40:58;95412.75;;;28.80;35.33
51083;BME280;37131;42.694;23.350;2022-08-04T15:43:49;95410.41;;;28.78;34.27
51083;BME280;37131;42.694;23.350;2022-08-04T15:47:11;95418.38;;;28.75;34.18
51083;BME280;37131;42.694;23.350;2022-08-04T15:49:24;95385.69;;;28.35;32.99
51083;BME280;37131;42.694;23.350;2022-08-04T15:52:03;95412.66;;;28.64;35.09
51083;BME280;37131;42.694;23.350;2022-08-04T15:54:29;95411.06;;;28.38;34.03
51083;BME280;37131;42.694;23.350;2022-08-04T15:56:55;95418.97;;;28.34;35.62
51083;BME280;37131;42.694;23.350;2022-08-04T15:59:59;95416.31;;;28.47;34.25
51083;BME280;37131;42.694;23.350;2022-08-04T16:07:59;95421.16;;;28.66;35.42
51083;BME280;37131;42.694;23.350;2022-08-04T16:13:08;95388.50;;;28.27;36.96
51083;BME280;37131;42.694;23.350;2022-08-04T16:15:54;95422.03;;;28.58;36.54
51083;BME280;37131;42.694;23.350;2022-08-04T16:18:21;95416.00;;;28.61;35.84
51083;BME280;37131;42.694;23.350;2022-08-04T16:21:05;95415.78;;;28.66;34.83
51083;BME280;37131;42.694;23.350;2022-08-04T16:34:33;95407.97;;;28.61;35.38
51083;BME280;37131;42.694;23.350;2022-08-04T16:37:11;95409.63;;;28.53;35.54
51083;BME280;37131;42.694;23.350;2022-08-04T16:39:38;95412.41;;;28.57;34.29
51083;BME280;37131;42.694;23.350;2022-08-04T16:50:15;95422.22;;;28.15;35.52
51083;BME280;37131;42.694;23.350;2022-08-04T16:52:45;95417.66;;;28.28;34.61
51083;BME280;37131;42.694;23.350;2022-08-04T16:55:13;95415.88;;;28.32;35.08
51083;BME280;37131;42.694;23.350;2022-08-04T16:57:39;95419.53;;;28.15;33.78
51083;BME280;37131;42.694;23.350;2022-08-04T17:00:05;95425.78;;;28.07;34.62
51083;BME280;37131;42.694;23.350;2022-08-04T17:02:33;95426.91;;;28.18;35.23
51083;BME280;37131;42.694;23.350;2022-08-04T17:04:58;95436.25;;;28.00;34.96
51083;BME280;37131;42.694;23.350;2022-08-04T17:07:24;95425.66;;;27.70;36.01
51083;BME280;37131;42.694;23.350;2022-08-04T17:09:50;95435.88;;;27.68;35.22
51083;BME280;37131;42.694;23.350;2022-08-04T17:12:16;95435.16;;;27.80;35.18
51083;BME280;37131;42.694;23.350;2022-08-04T17:14:41;95434.53;;;27.95;34.51
51083;BME280;37131;42.694;23.350;2022-08-04T17:17:07;95439.91;;;27.95;35.21